sensor_id;sensor_type;location;lat;lon;timestamp;pressure;altitude;pressure_sealevel;temperature;humidity
47809;BME280;33573;38.790;-77.084;2023-08-17T00:01:56;101108.72;;;29.25;35.54
47809;BME280;33573;38.790;-77.084;2023-08-17T00:04:21;101111.73;;;28.93;36.63
47809;BME280;33573;38.790;-77.084;2023-08-17T00:06:46;101114.79;;;29.44;35.86
47809;BME280;33573;38.790;-77.084;2023-08-17T00:09:12;101115.67;;;30.20;34.65
47809;BME280;33573;38.790;-77.084;2023-08-17T00:11:37;101119.46;;;30.09;34.81
47809;BME280;33573;38.790;-77.084;2023-08-17T00:14:03;101118.12;;;30.25;34.87
47809;BME280;33573;38.790;-77.084;2023-08-17T00:16:28;101120.12;;;30.10;35.01
47809;BME280;33573;38.790;-77.084;2023-08-17T00:18:53;101119.14;;;30.31;34.80
47809;BME280;33573;38.790;-77.084;2023-08-17T00:21:19;101122.55;;;29.91;35.54
47809;BME280;33573;38.790;-77.084;2023-08-17T00:23:44;101123.19;;;29.48;36.68
47809;BME280;33573;38.790;-77.084;2023-08-17T00:26:10;101129.11;;;29.00;38.15
47809;BME280;33573;38.790;-77.084;2023-08-17T00:28:35;101125.69;;;28.42;39.34
47809;BME280;33573;38.790;-77.084;2023-08-17T00:31:00;101127.23;;;28.30;38.84
47809;BME280;33573;38.790;-77.084;2023-08-17T00:33:26;101127.15;;;29.03;38.18
47809;BME280;33573;38.790;-77.084;2023-08-17T00:35:51;101126.34;;;29.16;38.09
47809;BME280;33573;38.790;-77.084;2023-08-17T00:38:17;101126.70;;;28.19;39.50
47809;BME280;33573;38.790;-77.084;2023-08-17T00:40:42;101129.78;;;28.09;39.93
47809;BME280;33573;38.790;-77.084;2023-08-17T00:43:08;101129.82;;;28.24;40.10
47809;BME280;33573;38.790;-77.084;2023-08-17T00:45:33;101132.83;;;27.69;40.56
47809;BME280;33573;38.790;-77.084;2023-08-17T00:47:59;101134.42;;;27.76;40.62
47809;BME280;33573;38.790;-77.084;2023-08-17T00:50:24;101132.57;;;28.52;39.46
47809;BME280;33573;38.790;-77.084;2023-08-17T00:52:49;101135.60;;;28.58;38.74
47809;BME280;33573;38.790;-77.084;2023-08-17T00:55:15;101134.36;;;28.30;39.32
47809;BME280;33573;38.790;-77.084;2023-08-17T00:57:41;101136.87;;;28.06;40.02
47809;BME280;33573;38.790;-77.084;2023-08-17T01:00:06;101143.01;;;27.87;40.76
47809;BME280;33573;38.790;-77.084;2023-08-17T01:02:30;101147.89;;;27.57;41.21
47809;BME280;33573;38.790;-77.084;2023-08-17T01:04:56;101149.50;;;27.53;40.40
47809;BME280;33573;38.790;-77.084;2023-08-17T01:07:22;101149.49;;;27.44;41.17
47809;BME280;33573;38.790;-77.084;2023-08-17T01:09:47;101156.40;;;27.37;42.45
47809;BME280;33573;38.790;-77.084;2023-08-17T01:12:19;101160.94;;;27.02;42.87
47809;BME280;33573;38.790;-77.084;2023-08-17T01:14:48;101164.16;;;26.92;42.33
47809;BME280;33573;38.790;-77.084;2023-08-17T01:17:09;101164.26;;;26.91;42.67
47809;BME280;33573;38.790;-77.084;2023-08-17T01:19:28;101163.55;;;26.91;43.49
47809;BME280;33573;38.790;-77.084;2023-08-17T01:22:00;101160.33;;;26.39;44.58
47809;BME280;33573;38.790;-77.084;2023-08-17T01:24:19;101157.84;;;26.54;44.07
47809;BME280;33573;38.790;-77.084;2023-08-17T01:26:45;101157.03;;;26.64;44.04
47809;BME280;33573;38.790;-77.084;2023-08-17T01:29:10;101155.63;;;26.37;43.61
47809;BME280;33573;38.790;-77.084;2023-08-17T01:31:42;101155.93;;;26.42;44.43
47809;BME280;33573;38.790;-77.084;2023-08-17T01:34:05;101158.58;;;26.48;44.53
47809;BME280;33573;38.790;-77.084;2023-08-17T01:36:30;101157.45;;;26.40;44.78
47809;BME280;33573;38.790;-77.084;2023-08-17T01:38:53;101162.62;;;26.36;45.48
47809;BME280;33573;38.790;-77.084;2023-08-17T01:41:17;101165.03;;;26.10;44.86
47809;BME280;33573;38.790;-77.084;2023-08-17T01:43:44;101163.11;;;26.04;45.48
47809;BME280;33573;38.790;-77.084;2023-08-17T01:46:08;101167.60;;;26.19;45.29
47809;BME280;33573;38.790;-77.084;2023-08-17T01:48:33;101169.87;;;26.01;46.22
47809;BME280;33573;38.790;-77.084;2023-08-17T01:50:59;101172.00;;;25.66;46.90
47809;BME280;33573;38.790;-77.084;2023-08-17T01:53:24;101173.18;;;25.77;46.72
47809;BME280;33573;38.790;-77.084;2023-08-17T01:55:50;101174.59;;;25.63;45.79
47809;BME280;33573;38.790;-77.084;2023-08-17T01:58:15;101171.90;;;26.45;44.83
47809;BME280;33573;38.790;-77.084;2023-08-17T02:00:41;101171.67;;;26.49;44.87
47809;BME280;33573;38.790;-77.084;2023-08-17T02:03:06;101171.38;;;26.52;44.56
47809;BME280;33573;38.790;-77.084;2023-08-17T02:05:31;101166.30;;;26.39;44.94
47809;BME280;33573;38.790;-77.084;2023-08-17T02:07:57;101167.11;;;26.63;45.32
47809;BME280;33573;38.790;-77.084;2023-08-17T02:10:23;101167.02;;;26.23;44.66
47809;BME280;33573;38.790;-77.084;2023-08-17T02:12:48;101170.64;;;25.95;44.70
47809;BME280;33573;38.790;-77.084;2023-08-17T02:15:13;101171.74;;;25.75;45.32
47809;BME280;33573;38.790;-77.084;2023-08-17T02:17:38;101170.64;;;25.87;45.57
47809;BME280;33573;38.790;-77.084;2023-08-17T02:20:05;101172.46;;;25.95;45.75
47809;BME280;33573;38.790;-77.084;2023-08-17T02:22:29;101171.39;;;25.35;46.35
47809;BME280;33573;38.790;-77.084;2023-08-17T02:24:54;101170.55;;;25.49;46.49
47809;BME280;33573;38.790;-77.084;2023-08-17T02:27:19;101170.52;;;25.58;46.36
47809;BME280;33573;38.790;-77.084;2023-08-17T02:29:44;101170.65;;;24.88;46.29
47809;BME280;33573;38.790;-77.084;2023-08-17T02:32:10;101173.29;;;25.36;47.28
47809;BME280;33573;38.790;-77.084;2023-08-17T02:34:35;101174.58;;;25.17;48.02
47809;BME280;33573;38.790;-77.084;2023-08-17T02:37:01;101175.36;;;25.19;47.30
47809;BME280;33573;38.790;-77.084;2023-08-17T02:39:26;101176.45;;;25.19;46.98
47809;BME280;33573;38.790;-77.084;2023-08-17T02:41:51;101177.36;;;25.04;48.08
47809;BME280;33573;38.790;-77.084;2023-08-17T02:44:17;101174.89;;;25.24;46.16
47809;BME280;33573;38.790;-77.084;2023-08-17T02:46:42;101178.91;;;25.27;47.29
47809;BME280;33573;38.790;-77.084;2023-08-17T02:49:08;101177.00;;;24.96;46.35
47809;BME280;33573;38.790;-77.084;2023-08-17T02:51:34;101177.94;;;25.19;46.29
47809;BME280;33573;38.790;-77.084;2023-08-17T02:53:59;101178.29;;;25.30;46.81
47809;BME280;33573;38.790;-77.084;2023-08-17T02:56:24;101174.50;;;24.89;47.83
47809;BME280;33573;38.790;-77.084;2023-08-17T02:58:49;101171.62;;;25.06;47.28
47809;BME280;33573;38.790;-77.084;2023-08-17T03:01:15;101172.81;;;24.59;47.76
47809;BME280;33573;38.790;-77.084;2023-08-17T03:03:40;101173.04;;;24.79;47.81
47809;BME280;33573;38.790;-77.084;2023-08-17T03:06:07;101175.67;;;24.94;47.30
47809;BME280;33573;38.790;-77.084;2023-08-17T03:08:31;101174.37;;;25.06;47.25
47809;BME280;33573;38.790;-77.084;2023-08-17T03:10:56;101175.60;;;24.96;45.90
47809;BME280;33573;38.790;-77.084;2023-08-17T03:13:22;101175.46;;;25.22;46.46
47809;BME280;33573;38.790;-77.084;2023-08-17T03:15:47;101178.28;;;24.74;48.00
47809;BME280;33573;38.790;-77.084;2023-08-17T03:18:13;101180.07;;;25.27;47.06
47809;BME280;33573;38.790;-77.084;2023-08-17T03:20:38;101177.69;;;24.88;46.61
47809;BME280;33573;38.790;-77.084;2023-08-17T03:23:04;101179.74;;;24.32;48.50
47809;BME280;33573;38.790;-77.084;2023-08-17T03:25:29;101178.39;;;24.79;47.78
47809;BME280;33573;38.790;-77.084;2023-08-17T03:27:54;101176.53;;;24.54;48.28
47809;BME280;33573;38.790;-77.084;2023-08-17T03:30:20;101175.58;;;25.15;47.68
47809;BME280;33573;38.790;-77.084;2023-08-17T03:32:45;101177.08;;;24.92;47.89
47809;BME280;33573;38.790;-77.084;2023-08-17T03:35:10;101177.68;;;24.71;48.02
47809;BME280;33573;38.790;-77.084;2023-08-17T03:37:35;101172.81;;;24.56;48.20
47809;BME280;33573;38.790;-77.084;2023-08-17T03:40:00;101173.35;;;24.87;49.13
47809;BME280;33573;38.790;-77.084;2023-08-17T03:42:26;101172.98;;;24.46;49.15
47809;BME280;33573;38.790;-77.084;2023-08-17T03:44:51;101169.75;;;24.16;49.39
47809;BME280;33573;38.790;-77.084;2023-08-17T03:47:16;101168.06;;;24.43;48.98
47809;BME280;33573;38.790;-77.084;2023-08-17T03:49:42;101170.28;;;24.43;49.05
47809;BME280;33573;38.790;-77.084;2023-08-17T03:52:07;101169.23;;;24.69;48.92
47809;BME280;33573;38.790;-77.084;2023-08-17T03:54:32;101169.22;;;24.28;49.10
47809;BME280;33573;38.790;-77.084;2023-08-17T03:56:58;101166.61;;;24.11;49.15
47809;BME280;33573;38.790;-77.084;2023-08-17T03:59:23;101166.58;;;24.18;48.63
47809;BME280;33573;38.790;-77.084;2023-08-17T04:01:48;101166.61;;;24.41;49.50
47809;BME280;33573;38.790;-77.084;2023-08-17T04:04:14;101165.72;;;24.10;50.23
47809;BME280;33573;38.790;-77.084;2023-08-17T04:06:39;101163.22;;;24.02;50.16
47809;BME280;33573;38.790;-77.084;2023-08-17T04:09:05;101160.14;;;23.85;49.66
47809;BME280;33573;38.790;-77.084;2023-08-17T04:11:30;101162.92;;;24.00;50.22
47809;BME280;33573;38.790;-77.084;2023-08-17T04:13:55;101162.23;;;23.88;50.83
47809;BME280;33573;38.790;-77.084;2023-08-17T04:16:20;101161.05;;;23.39;50.97
47809;BME280;33573;38.790;-77.084;2023-08-17T04:18:46;101159.13;;;23.79;50.85
47809;BME280;33573;38.790;-77.084;2023-08-17T04:21:11;101156.56;;;23.70;51.04
47809;BME280;33573;38.790;-77.084;2023-08-17T04:23:37;101157.70;;;23.53;50.71
47809;BME280;33573;38.790;-77.084;2023-08-17T04:26:02;101159.60;;;23.77;51.05
47809;BME280;33573;38.790;-77.084;2023-08-17T04:28:28;101158.80;;;23.67;51.14
47809;BME280;33573;38.790;-77.084;2023-08-17T04:30:53;101163.17;;;23.49;51.48
47809;BME280;33573;38.790;-77.084;2023-08-17T04:33:18;101163.49;;;23.23;52.15
47809;BME280;33573;38.790;-77.084;2023-08-17T04:35:47;101162.60;;;23.39;51.59
47809;BME280;33573;38.790;-77.084;2023-08-17T04:38:09;101161.22;;;23.45;51.80
47809;BME280;33573;38.790;-77.084;2023-08-17T04:40:34;101165.45;;;23.53;51.67
47809;BME280;33573;38.790;-77.084;2023-08-17T04:43:00;101167.10;;;23.23;52.50
47809;BME280;33573;38.790;-77.084;2023-08-17T04:45:25;101165.83;;;23.45;52.64
47809;BME280;33573;38.790;-77.084;2023-08-17T04:47:51;101160.48;;;23.20;52.25
47809;BME280;33573;38.790;-77.084;2023-08-17T04:50:16;101150.72;;;23.30;52.05
47809;BME280;33573;38.790;-77.084;2023-08-17T04:52:42;101148.51;;;23.25;52.59
47809;BME280;33573;38.790;-77.084;2023-08-17T04:55:08;101150.27;;;23.26;52.06
47809;BME280;33573;38.790;-77.084;2023-08-17T04:57:33;101152.21;;;23.21;52.21
47809;BME280;33573;38.790;-77.084;2023-08-17T04:59:58;101157.51;;;23.30;52.35
47809;BME280;33573;38.790;-77.084;2023-08-17T05:02:23;101153.57;;;23.08;52.51
47809;BME280;33573;38.790;-77.084;2023-08-17T05:04:49;101152.78;;;23.29;52.39
47809;BME280;33573;38.790;-77.084;2023-08-17T05:07:14;101150.01;;;23.03;52.39
47809;BME280;33573;38.790;-77.084;2023-08-17T05:09:39;101148.94;;;23.17;52.52
47809;BME280;33573;38.790;-77.084;2023-08-17T05:12:05;101146.76;;;23.44;52.23
47809;BME280;33573;38.790;-77.084;2023-08-17T05:14:30;101145.59;;;23.27;52.23
47809;BME280;33573;38.790;-77.084;2023-08-17T05:16:55;101144.56;;;22.97;52.70
47809;BME280;33573;38.790;-77.084;2023-08-17T05:19:20;101143.18;;;23.25;53.25
47809;BME280;33573;38.790;-77.084;2023-08-17T05:21:46;101142.13;;;23.27;53.27
47809;BME280;33573;38.790;-77.084;2023-08-17T05:24:11;101143.40;;;23.20;53.43
47809;BME280;33573;38.790;-77.084;2023-08-17T05:26:37;101147.90;;;23.06;54.14
47809;BME280;33573;38.790;-77.084;2023-08-17T05:29:02;101148.41;;;22.95;53.77
47809;BME280;33573;38.790;-77.084;2023-08-17T05:31:27;101144.05;;;23.04;54.11
47809;BME280;33573;38.790;-77.084;2023-08-17T05:33:52;101142.31;;;22.85;54.01
47809;BME280;33573;38.790;-77.084;2023-08-17T05:36:18;101146.02;;;22.72;53.96
47809;BME280;33573;38.790;-77.084;2023-08-17T05:38:43;101154.46;;;23.36;54.17
47809;BME280;33573;38.790;-77.084;2023-08-17T05:41:09;101151.39;;;23.17;54.37
47809;BME280;33573;38.790;-77.084;2023-08-17T05:43:34;101150.48;;;22.60;54.19
47809;BME280;33573;38.790;-77.084;2023-08-17T05:45:59;101146.84;;;23.12;53.65
47809;BME280;33573;38.790;-77.084;2023-08-17T05:48:25;101146.53;;;23.20;53.33
47809;BME280;33573;38.790;-77.084;2023-08-17T05:50:50;101144.25;;;22.94;53.93
47809;BME280;33573;38.790;-77.084;2023-08-17T05:53:16;101142.36;;;23.27;54.23
47809;BME280;33573;38.790;-77.084;2023-08-17T05:55:41;101141.19;;;22.81;54.28
47809;BME280;33573;38.790;-77.084;2023-08-17T05:58:06;101141.09;;;22.93;54.26
47809;BME280;33573;38.790;-77.084;2023-08-17T06:00:32;101141.34;;;22.93;54.52
47809;BME280;33573;38.790;-77.084;2023-08-17T06:02:57;101136.60;;;22.97;54.22
47809;BME280;33573;38.790;-77.084;2023-08-17T06:05:24;101135.83;;;22.57;54.39
47809;BME280;33573;38.790;-77.084;2023-08-17T06:07:47;101133.80;;;22.87;54.89
47809;BME280;33573;38.790;-77.084;2023-08-17T06:10:12;101132.77;;;22.91;54.74
47809;BME280;33573;38.790;-77.084;2023-08-17T06:12:38;101135.44;;;22.71;54.80
47809;BME280;33573;38.790;-77.084;2023-08-17T06:15:04;101134.05;;;22.94;54.42
47809;BME280;33573;38.790;-77.084;2023-08-17T06:17:29;101133.25;;;22.75;54.17
47809;BME280;33573;38.790;-77.084;2023-08-17T06:19:54;101130.14;;;23.05;53.80
47809;BME280;33573;38.790;-77.084;2023-08-17T06:22:19;101132.30;;;22.88;54.02
47809;BME280;33573;38.790;-77.084;2023-08-17T06:24:44;101137.09;;;22.80;54.26
47809;BME280;33573;38.790;-77.084;2023-08-17T06:27:14;101130.41;;;23.00;53.86
47809;BME280;33573;38.790;-77.084;2023-08-17T06:29:35;101130.12;;;22.47;54.72
47809;BME280;33573;38.790;-77.084;2023-08-17T06:32:01;101127.53;;;22.62;55.15
47809;BME280;33573;38.790;-77.084;2023-08-17T06:34:26;101128.69;;;22.70;54.99
47809;BME280;33573;38.790;-77.084;2023-08-17T06:36:59;101124.10;;;22.47;55.71
47809;BME280;33573;38.790;-77.084;2023-08-17T06:39:17;101128.30;;;22.70;55.20
47809;BME280;33573;38.790;-77.084;2023-08-17T06:41:42;101128.71;;;22.73;55.17
47809;BME280;33573;38.790;-77.084;2023-08-17T06:44:08;101128.16;;;22.39;55.75
47809;BME280;33573;38.790;-77.084;2023-08-17T06:46:33;101128.30;;;22.74;54.96
47809;BME280;33573;38.790;-77.084;2023-08-17T06:48:58;101122.93;;;22.84;54.69
47809;BME280;33573;38.790;-77.084;2023-08-17T06:51:24;101119.53;;;22.75;54.89
47809;BME280;33573;38.790;-77.084;2023-08-17T06:53:49;101117.28;;;22.76;54.79
47809;BME280;33573;38.790;-77.084;2023-08-17T06:56:14;101115.89;;;22.64;54.43
47809;BME280;33573;38.790;-77.084;2023-08-17T06:58:40;101118.58;;;22.77;54.70
47809;BME280;33573;38.790;-77.084;2023-08-17T07:01:05;101119.30;;;22.57;55.36
47809;BME280;33573;38.790;-77.084;2023-08-17T07:03:30;101115.40;;;22.37;55.50
47809;BME280;33573;38.790;-77.084;2023-08-17T07:05:56;101113.83;;;22.40;55.53
47809;BME280;33573;38.790;-77.084;2023-08-17T07:08:21;101111.35;;;22.57;55.57
47809;BME280;33573;38.790;-77.084;2023-08-17T07:10:46;101110.24;;;22.36;55.63
47809;BME280;33573;38.790;-77.084;2023-08-17T07:13:12;101111.64;;;22.62;55.01
47809;BME280;33573;38.790;-77.084;2023-08-17T07:15:37;101110.65;;;22.47;55.44
47809;BME280;33573;38.790;-77.084;2023-08-17T07:18:03;101111.62;;;22.47;55.48
47809;BME280;33573;38.790;-77.084;2023-08-17T07:20:28;101115.16;;;22.58;55.32
47809;BME280;33573;38.790;-77.084;2023-08-17T07:22:54;101122.02;;;22.62;55.21
47809;BME280;33573;38.790;-77.084;2023-08-17T07:25:19;101119.94;;;22.56;55.20
47809;BME280;33573;38.790;-77.084;2023-08-17T07:27:44;101112.58;;;22.61;55.55
47809;BME280;33573;38.790;-77.084;2023-08-17T07:30:11;101113.19;;;22.36;55.32
47809;BME280;33573;38.790;-77.084;2023-08-17T07:32:35;101115.21;;;22.43;55.29
47809;BME280;33573;38.790;-77.084;2023-08-17T07:35:00;101114.97;;;22.34;55.29
47809;BME280;33573;38.790;-77.084;2023-08-17T07:37:26;101117.98;;;22.28;55.69
47809;BME280;33573;38.790;-77.084;2023-08-17T07:39:51;101113.91;;;22.30;56.01
47809;BME280;33573;38.790;-77.084;2023-08-17T07:42:16;101112.89;;;22.60;55.68
47809;BME280;33573;38.790;-77.084;2023-08-17T07:44:42;101113.99;;;22.59;55.78
47809;BME280;33573;38.790;-77.084;2023-08-17T07:47:07;101109.82;;;22.94;54.92
47809;BME280;33573;38.790;-77.084;2023-08-17T07:49:32;101103.14;;;22.91;54.90
47809;BME280;33573;38.790;-77.084;2023-08-17T07:51:57;101098.88;;;22.77;55.02
47809;BME280;33573;38.790;-77.084;2023-08-17T07:54:23;101095.55;;;22.71;55.16
47809;BME280;33573;38.790;-77.084;2023-08-17T07:56:48;101095.86;;;22.73;55.34
47809;BME280;33573;38.790;-77.084;2023-08-17T07:59:13;101095.37;;;22.55;55.46
47809;BME280;33573;38.790;-77.084;2023-08-17T08:01:39;101097.25;;;22.70;55.69
47809;BME280;33573;38.790;-77.084;2023-08-17T08:04:05;101100.42;;;22.56;55.56
47809;BME280;33573;38.790;-77.084;2023-08-17T08:06:29;101097.16;;;22.42;55.73
47809;BME280;33573;38.790;-77.084;2023-08-17T08:08:55;101100.81;;;22.41;55.99
47809;BME280;33573;38.790;-77.084;2023-08-17T08:11:22;101101.75;;;22.51;56.25
47809;BME280;33573;38.790;-77.084;2023-08-17T08:13:46;101103.55;;;22.54;55.56
47809;BME280;33573;38.790;-77.084;2023-08-17T08:16:11;101097.19;;;22.04;56.04
47809;BME280;33573;38.790;-77.084;2023-08-17T08:18:36;101092.06;;;22.42;55.69
47809;BME280;33573;38.790;-77.084;2023-08-17T08:21:02;101088.24;;;22.17;56.40
47809;BME280;33573;38.790;-77.084;2023-08-17T08:23:27;101086.68;;;22.39;55.62
47809;BME280;33573;38.790;-77.084;2023-08-17T08:25:52;101083.79;;;22.37;56.07
47809;BME280;33573;38.790;-77.084;2023-08-17T08:28:17;101083.36;;;22.52;55.43
47809;BME280;33573;38.790;-77.084;2023-08-17T08:30:43;101085.05;;;22.04;56.10
47809;BME280;33573;38.790;-77.084;2023-08-17T08:33:08;101087.39;;;21.82;56.58
47809;BME280;33573;38.790;-77.084;2023-08-17T08:35:33;101087.66;;;22.15;56.32
47809;BME280;33573;38.790;-77.084;2023-08-17T08:37:59;101090.34;;;22.24;56.24
47809;BME280;33573;38.790;-77.084;2023-08-17T08:40:28;101090.88;;;22.23;56.38
47809;BME280;33573;38.790;-77.084;2023-08-17T08:42:49;101093.68;;;22.29;56.12
47809;BME280;33573;38.790;-77.084;2023-08-17T08:45:15;101094.65;;;22.33;56.23
47809;BME280;33573;38.790;-77.084;2023-08-17T08:47:42;101093.83;;;21.93;56.10
47809;BME280;33573;38.790;-77.084;2023-08-17T08:50:06;101092.90;;;22.25;56.37
47809;BME280;33573;38.790;-77.084;2023-08-17T08:52:34;101097.24;;;21.83;56.49
47809;BME280;33573;38.790;-77.084;2023-08-17T08:54:58;101100.88;;;21.96;56.26
47809;BME280;33573;38.790;-77.084;2023-08-17T08:57:22;101102.68;;;22.29;56.83
47809;BME280;33573;38.790;-77.084;2023-08-17T08:59:47;101104.21;;;21.76;56.41
47809;BME280;33573;38.790;-77.084;2023-08-17T09:02:14;101101.73;;;22.20;55.98
47809;BME280;33573;38.790;-77.084;2023-08-17T09:04:37;101100.12;;;21.85;56.24
47809;BME280;33573;38.790;-77.084;2023-08-17T09:07:02;101102.69;;;21.96;56.51
47809;BME280;33573;38.790;-77.084;2023-08-17T09:09:27;101104.30;;;22.07;56.30
47809;BME280;33573;38.790;-77.084;2023-08-17T09:11:53;101109.39;;;22.05;57.05
47809;BME280;33573;38.790;-77.084;2023-08-17T09:14:18;101109.90;;;22.00;56.41
47809;BME280;33573;38.790;-77.084;2023-08-17T09:16:43;101108.06;;;22.19;56.55
47809;BME280;33573;38.790;-77.084;2023-08-17T09:19:09;101110.94;;;21.86;56.86
47809;BME280;33573;38.790;-77.084;2023-08-17T09:21:34;101111.76;;;22.10;57.02
47809;BME280;33573;38.790;-77.084;2023-08-17T09:23:59;101109.96;;;21.98;56.66
47809;BME280;33573;38.790;-77.084;2023-08-17T09:26:25;101115.69;;;21.55;57.00
47809;BME280;33573;38.790;-77.084;2023-08-17T09:28:50;101117.12;;;21.75;57.08
47809;BME280;33573;38.790;-77.084;2023-08-17T09:31:15;101117.90;;;22.16;56.59
47809;BME280;33573;38.790;-77.084;2023-08-17T09:33:41;101117.29;;;21.90;56.62
47809;BME280;33573;38.790;-77.084;2023-08-17T09:36:06;101118.38;;;21.85;56.80
47809;BME280;33573;38.790;-77.084;2023-08-17T09:38:32;101120.18;;;21.63;57.17
47809;BME280;33573;38.790;-77.084;2023-08-17T09:40:58;101119.25;;;21.82;56.62
47809;BME280;33573;38.790;-77.084;2023-08-17T09:43:22;101119.85;;;21.67;56.96
47809;BME280;33573;38.790;-77.084;2023-08-17T09:45:48;101121.68;;;21.93;56.95
47809;BME280;33573;38.790;-77.084;2023-08-17T09:48:15;101120.31;;;21.76;56.95
47809;BME280;33573;38.790;-77.084;2023-08-17T09:50:38;101120.61;;;21.86;56.99
47809;BME280;33573;38.790;-77.084;2023-08-17T09:53:03;101117.10;;;21.43;57.40
47809;BME280;33573;38.790;-77.084;2023-08-17T09:55:30;101115.91;;;21.63;57.22
47809;BME280;33573;38.790;-77.084;2023-08-17T09:57:54;101114.68;;;21.70;57.21
47809;BME280;33573;38.790;-77.084;2023-08-17T10:00:20;101118.56;;;21.78;56.55
47809;BME280;33573;38.790;-77.084;2023-08-17T10:02:45;101124.46;;;21.97;56.32
47809;BME280;33573;38.790;-77.084;2023-08-17T10:05:11;101123.74;;;21.80;57.07
47809;BME280;33573;38.790;-77.084;2023-08-17T10:07:38;101123.31;;;21.67;57.31
47809;BME280;33573;38.790;-77.084;2023-08-17T10:10:03;101123.27;;;21.76;57.12
47809;BME280;33573;38.790;-77.084;2023-08-17T10:12:27;101131.23;;;21.60;57.00
47809;BME280;33573;38.790;-77.084;2023-08-17T10:14:55;101135.56;;;21.72;56.50
47809;BME280;33573;38.790;-77.084;2023-08-17T10:17:24;101135.41;;;22.02;56.17
47809;BME280;33573;38.790;-77.084;2023-08-17T10:19:46;101134.84;;;21.72;56.00
47809;BME280;33573;38.790;-77.084;2023-08-17T10:22:12;101135.45;;;21.69;56.34
47809;BME280;33573;38.790;-77.084;2023-08-17T10:24:33;101131.04;;;22.07;55.79
47809;BME280;33573;38.790;-77.084;2023-08-17T10:26:57;101134.28;;;21.46;57.20
47809;BME280;33573;38.790;-77.084;2023-08-17T10:29:23;101141.33;;;21.59;57.08
47809;BME280;33573;38.790;-77.084;2023-08-17T10:31:49;101145.76;;;21.64;56.50
47809;BME280;33573;38.790;-77.084;2023-08-17T10:34:14;101148.20;;;21.96;56.16
47809;BME280;33573;38.790;-77.084;2023-08-17T10:36:39;101145.82;;;21.72;56.44
47809;BME280;33573;38.790;-77.084;2023-08-17T10:39:19;101148.88;;;21.89;56.80
47809;BME280;33573;38.790;-77.084;2023-08-17T10:41:29;101152.65;;;21.95;56.68
47809;BME280;33573;38.790;-77.084;2023-08-17T10:43:55;101155.87;;;22.00;56.21
47809;BME280;33573;38.790;-77.084;2023-08-17T10:46:19;101154.49;;;21.67;56.25
47809;BME280;33573;38.790;-77.084;2023-08-17T10:48:45;101156.02;;;22.14;55.83
47809;BME280;33573;38.790;-77.084;2023-08-17T10:51:10;101159.33;;;22.04;55.95
47809;BME280;33573;38.790;-77.084;2023-08-17T10:53:37;101157.96;;;21.55;56.70
47809;BME280;33573;38.790;-77.084;2023-08-17T10:56:00;101162.34;;;22.12;56.83
47809;BME280;33573;38.790;-77.084;2023-08-17T10:58:26;101169.34;;;21.75;56.57
47809;BME280;33573;38.790;-77.084;2023-08-17T11:00:55;101175.34;;;22.35;56.05
47809;BME280;33573;38.790;-77.084;2023-08-17T11:03:19;101176.11;;;21.71;56.51
47809;BME280;33573;38.790;-77.084;2023-08-17T11:05:43;101178.27;;;21.73;57.39
47809;BME280;33573;38.790;-77.084;2023-08-17T11:08:08;101179.57;;;21.61;57.18
47809;BME280;33573;38.790;-77.084;2023-08-17T11:10:32;101184.01;;;22.36;56.63
47809;BME280;33573;38.790;-77.084;2023-08-17T11:12:57;101186.66;;;22.10;56.29
47809;BME280;33573;38.790;-77.084;2023-08-17T11:15:22;101185.23;;;22.14;57.06
47809;BME280;33573;38.790;-77.084;2023-08-17T11:17:47;101187.08;;;21.99;57.30
47809;BME280;33573;38.790;-77.084;2023-08-17T11:20:12;101186.97;;;22.37;56.98
47809;BME280;33573;38.790;-77.084;2023-08-17T11:22:37;101189.59;;;22.59;56.06
47809;BME280;33573;38.790;-77.084;2023-08-17T11:25:04;101188.01;;;22.28;56.44
47809;BME280;33573;38.790;-77.084;2023-08-17T11:27:31;101186.67;;;22.46;56.85
47809;BME280;33573;38.790;-77.084;2023-08-17T11:29:55;101188.01;;;22.52;56.22
47809;BME280;33573;38.790;-77.084;2023-08-17T11:32:20;101189.10;;;22.88;55.41
47809;BME280;33573;38.790;-77.084;2023-08-17T11:34:45;101187.92;;;22.82;55.84
47809;BME280;33573;38.790;-77.084;2023-08-17T11:37:12;101185.25;;;23.13;55.42
47809;BME280;33573;38.790;-77.084;2023-08-17T11:39:36;101183.58;;;23.63;54.33
47809;BME280;33573;38.790;-77.084;2023-08-17T11:42:01;101180.51;;;23.81;53.49
47809;BME280;33573;38.790;-77.084;2023-08-17T11:44:26;101179.90;;;23.78;53.35
47809;BME280;33573;38.790;-77.084;2023-08-17T11:46:51;101183.49;;;24.03;53.55
47809;BME280;33573;38.790;-77.084;2023-08-17T11:49:17;101188.41;;;24.20;52.76
47809;BME280;33573;38.790;-77.084;2023-08-17T11:51:43;101192.55;;;24.37;52.38
47809;BME280;33573;38.790;-77.084;2023-08-17T11:54:08;101196.10;;;24.73;51.82
47809;BME280;33573;38.790;-77.084;2023-08-17T11:56:34;101198.75;;;24.59;51.73
47809;BME280;33573;38.790;-77.084;2023-08-17T11:58:59;101196.83;;;25.14;50.63
47809;BME280;33573;38.790;-77.084;2023-08-17T12:01:24;101193.09;;;25.40;50.41
47809;BME280;33573;38.790;-77.084;2023-08-17T12:03:50;101192.41;;;25.54;50.13
47809;BME280;33573;38.790;-77.084;2023-08-17T12:06:30;101193.67;;;25.70;49.46
47809;BME280;33573;38.790;-77.084;2023-08-17T12:08:49;101197.60;;;25.66;49.42
47809;BME280;33573;38.790;-77.084;2023-08-17T12:11:05;101197.19;;;25.74;48.73
47809;BME280;33573;38.790;-77.084;2023-08-17T12:13:37;101191.08;;;25.72;48.50
47809;BME280;33573;38.790;-77.084;2023-08-17T12:16:01;101188.22;;;25.80;48.11
47809;BME280;33573;38.790;-77.084;2023-08-17T12:18:22;101191.07;;;25.92;47.64
47809;BME280;33573;38.790;-77.084;2023-08-17T12:20:52;101191.06;;;25.97;47.83